Time;durP1;ratioP1;P1;durP2;ratioP2;P2;SDS_P1;SDS_P2;PMS_P1;PMS_P2;Temp;Humidity;BMP_temperature;BMP_pressure;BME280_temperature;BME280_humidity;BME280_pressure;Samples;Min_cycle;Max_cycle;Signal;HPM_P1;HPM_P2
2023/10/03 00:00:33;;;;;;;2.60;1.33;;;;;;;19.18;100.00;100481.81;7355920;19;20018;-66
2023/10/03 00:03:08;;;;;;;2.50;1.17;;;;;;;19.19;100.00;100482.63;7362553;19;20019;-66
2023/10/03 00:05:37;;;;;;;4.13;1.60;;;;;;;19.16;100.00;100481.19;7359557;19;20941;-65
2023/10/03 00:08:05;;;;;;;3.38;1.50;;;;;;;19.17;100.00;100479.34;7361455;19;20018;-65
2023/10/03 00:10:33;;;;;;;5.30;1.55;;;;;;;19.18;100.00;100478.31;7361909;19;20018;-66
2023/10/03 00:13:00;;;;;;;4.25;1.30;;;;;;;19.18;100.00;100484.47;7359649;19;20021;-66
2023/10/03 00:15:28;;;;;;;3.75;1.30;;;;;;;19.16;100.00;100483.03;7358316;19;20649;-65
2023/10/03 00:17:55;;;;;;;4.80;1.50;;;;;;;19.12;100.00;100492.50;7363921;19;20018;-66
2023/10/03 00:20:22;;;;;;;4.18;1.65;;;;;;;19.08;100.00;100496.66;7364143;19;20014;-66
2023/10/03 00:22:50;;;;;;;5.57;1.83;;;;;;;19.09;100.00;100501.78;7362725;19;20015;-66
2023/10/03 00:25:19;;;;;;;2.72;1.15;;;;;;;19.05;100.00;100510.41;7360824;19;21718;-65
2023/10/03 00:27:46;;;;;;;4.28;1.63;;;;;;;19.05;100.00;100518.41;7357838;19;20015;-65
2023/10/03 00:30:14;;;;;;;4.28;1.70;;;;;;;19.09;100.00;100520.47;7358079;19;20526;-65
2023/10/03 00:32:51;;;;;;;4.28;1.75;;;;;;;19.05;100.00;100515.75;7356877;19;20018;-65
2023/10/03 00:35:22;;;;;;;5.80;1.90;;;;;;;19.04;100.00;100522.13;7362335;19;20014;-66
2023/10/03 00:37:51;;;;;;;3.17;1.67;;;;;;;19.00;100.00;100535.06;7363618;19;20015;-66
2023/10/03 00:42:52;;;;;;;3.77;2.10;;;;;;;18.93;100.00;100571.63;7358341;19;20621;-64
2023/10/03 00:45:21;;;;;;;4.75;1.98;;;;;;;18.76;99.41;100576.63;7358056;19;20282;-65
2023/10/03 00:47:49;;;;;;;2.58;1.60;;;;;;;18.56;97.95;100586.56;7360423;19;20038;-67
2023/10/03 00:50:25;;;;;;;2.97;1.48;;;;;;;18.36;97.79;100586.59;7360706;19;20011;-66
2023/10/03 00:52:55;;;;;;;3.47;1.35;;;;;;;18.20;97.24;100597.69;7361283;19;20015;-67
2023/10/03 00:55:26;;;;;;;2.13;0.55;;;;;;;18.01;95.34;100605.72;7359025;19;20037;-66
2023/10/03 00:58:04;;;;;;;2.75;0.68;;;;;;;17.77;94.95;100616.00;7354682;19;20014;-66
2023/10/03 01:00:31;;;;;;;1.92;0.68;;;;;;;17.60;95.26;100612.09;7354934;19;21417;-66
2023/10/03 01:02:58;;;;;;;1.92;0.55;;;;;;;17.51;96.28;100615.94;7358224;19;20018;-65
2023/10/03 01:05:26;;;;;;;1.80;0.55;;;;;;;17.28;93.64;100634.09;7359713;19;20018;-65
2023/10/03 01:07:53;;;;;;;1.35;0.40;;;;;;;17.19;93.87;100632.66;7359907;19;20007;-66
2023/10/03 01:10:21;;;;;;;2.88;0.40;;;;;;;16.99;92.20;100640.56;7359552;19;20022;-66
2023/10/03 01:12:49;;;;;;;1.20;0.32;;;;;;;16.92;93.20;100643.19;7356027;19;20086;-65
2023/10/03 01:15:18;;;;;;;1.02;0.30;;;;;;;16.77;93.05;100652.31;7355000;19;20026;-66
2023/10/03 01:17:53;;;;;;;1.23;0.30;;;;;;;16.74;94.15;100653.56;7357095;19;20486;-66
2023/10/03 01:20:24;;;;;;;1.15;0.30;;;;;;;16.64;93.55;100656.56;7356873;19;20491;-66
2023/10/03 01:22:52;;;;;;;1.85;0.30;;;;;;;16.54;93.18;100652.59;7358738;19;20018;-65
2023/10/03 01:25:20;;;;;;;0.82;0.30;;;;;;;16.51;93.16;100653.78;7359335;19;20018;-65
2023/10/03 01:27:48;;;;;;;2.65;0.30;;;;;;;16.49;94.18;100653.19;7357083;19;20014;-67
2023/10/03 01:30:24;;;;;;;0.60;0.20;;;;;;;16.44;92.96;100663.56;7359261;19;20098;-65
2023/10/03 01:32:56;;;;;;;1.92;0.20;;;;;;;16.41;93.42;100650.66;7358856;19;20021;-66
2023/10/03 01:35:23;;;;;;;0.63;0.30;;;;;;;16.38;93.29;100647.59;7360620;19;20015;-65
2023/10/03 01:37:50;;;;;;;0.40;0.20;;;;;;;16.39;93.43;100643.94;7357501;19;20022;-66
2023/10/03 01:40:18;;;;;;;1.52;0.22;;;;;;;16.41;93.38;100633.91;7357036;19;20089;-65
2023/10/03 01:42:47;;;;;;;0.45;0.20;;;;;;;16.34;92.14;100633.91;7353688;19;20082;-65
2023/10/03 01:45:21;;;;;;;0.95;0.10;;;;;;;16.25;92.66;100622.59;7355183;19;20010;-66
2023/10/03 01:47:50;;;;;;;1.13;0.10;;;;;;;16.25;92.61;100624.44;7357493;19;20027;-66
2023/10/03 01:50:21;;;;;;;0.75;0.20;;;;;;;16.26;92.59;100634.03;7358459;19;20089;-66
2023/10/03 01:52:49;;;;;;;0.50;0.20;;;;;;;16.24;93.25;100630.75;7354591;19;20021;-65
2023/10/03 01:55:17;;;;;;;0.38;0.10;;;;;;;16.25;93.28;100653.66;7356225;19;20014;-66
2023/10/03 01:57:46;;;;;;;0.35;0.10;;;;;;;16.29;93.18;100668.19;7352908;19;20017;-65
2023/10/03 02:00:28;;;;;;;0.68;0.20;;;;;;;16.29;93.35;100664.69;7353687;19;20026;-65
2023/10/03 02:03:03;;;;;;;1.60;0.20;;;;;;;16.29;93.31;100662.88;7357352;19;20050;-66
2023/10/03 02:05:36;;;;;;;0.28;0.10;;;;;;;16.33;94.14;100653.50;7356391;19;20010;-65
2023/10/03 02:08:07;;;;;;;1.08;0.13;;;;;;;16.35;92.23;100658.63;7357158;19;20014;-66
2023/10/03 02:10:35;;;;;;;0.30;0.10;;;;;;;16.33;91.95;100689.84;7357494;19;20007;-65
2023/10/03 02:13:09;;;;;;;0.30;0.10;;;;;;;16.32;93.51;100698.81;7351722;19;20606;-66
2023/10/03 02:15:36;;;;;;;0.30;0.10;;;;;;;16.36;94.51;100697.41;7357575;19;20835;-66
2023/10/03 02:18:05;;;;;;;1.95;0.20;;;;;;;16.33;93.82;100717.22;7353469;19;20846;-66
2023/10/03 02:20:43;;;;;;;1.33;0.65;;;;;;;16.38;95.31;100727.28;7359153;19;20359;-66
2023/10/03 02:23:34;;;;;;;0.50;0.20;;;;;;;16.40;94.44;100741.19;7357413;19;20443;-66
2023/10/03 02:26:10;;;;;;;0.70;0.20;;;;;;;16.37;94.32;100737.06;7355655;19;20474;-65
2023/10/03 02:28:38;;;;;;;1.17;0.30;;;;;;;16.40;94.39;100752.63;7354666;19;20019;-65
2023/10/03 02:31:08;;;;;;;0.68;0.13;;;;;;;16.37;93.37;100745.03;7357746;19;20054;-66
2023/10/03 02:33:38;;;;;;;1.15;0.20;;;;;;;16.35;92.55;100740.94;7350646;19;20014;-65
2023/10/03 02:36:07;;;;;;;0.50;0.10;;;;;;;16.36;93.41;100742.56;7357867;19;20029;-65
2023/10/03 02:38:36;;;;;;;1.08;0.20;;;;;;;16.36;93.55;100755.84;7357438;19;20089;-66
2023/10/03 02:41:11;;;;;;;0.98;0.20;;;;;;;16.38;93.60;100753.81;7355844;19;20819;-66
2023/10/03 02:43:39;;;;;;;0.65;0.20;;;;;;;16.42;94.18;100763.03;7354393;19;20337;-65
2023/10/03 02:46:12;;;;;;;1.02;0.20;;;;;;;16.42;94.91;100763.88;7354509;19;20031;-66
2023/10/03 02:48:41;;;;;;;1.15;0.20;;;;;;;16.43;93.72;100768.19;7357539;19;20010;-65
2023/10/03 02:51:09;;;;;;;2.22;0.40;;;;;;;16.44;94.10;100777.78;7357141;19;20128;-66
2023/10/03 02:53:36;;;;;;;1.50;0.22;;;;;;;16.42;94.15;100779.81;7356099;19;20015;-66
2023/10/03 02:56:04;;;;;;;0.88;0.20;;;;;;;16.35;93.50;100788.75;7356369;19;20034;-66
2023/10/03 02:58:31;;;;;;;1.23;0.20;;;;;;;16.34;93.50;100785.25;7353665;19;20091;-66
2023/10/03 03:00:58;;;;;;;1.55;0.60;;;;;;;16.32;93.33;100786.47;7353215;19;22642;-65
2023/10/03 03:03:32;;;;;;;1.92;0.47;;;;;;;16.29;94.28;100776.22;7351016;19;20559;-65
2023/10/03 03:06:03;;;;;;;1.00;0.65;;;;;;;16.27;94.60;100769.28;7356173;19;20078;-66
2023/10/03 03:08:31;;;;;;;2.28;0.60;;;;;;;16.27;94.07;100787.03;7355249;19;20514;-65
2023/10/03 03:11:00;;;;;;;2.35;0.50;;;;;;;16.24;94.73;100782.13;7357577;19;20533;-65
2023/10/03 03:13:31;;;;;;;1.95;0.65;;;;;;;16.25;95.00;100783.75;7352419;19;20018;-65
2023/10/03 03:16:05;;;;;;;2.67;0.47;;;;;;;16.29;95.32;100786.84;7355707;19;20030;-66
2023/10/03 03:18:49;;;;;;;1.55;0.60;;;;;;;16.29;95.23;100797.47;7361367;19;20018;-65
2023/10/03 03:21:20;;;;;;;1.80;0.70;;;;;;;16.25;95.39;100792.53;7366188;19;20031;-65
2023/10/03 03:24:00;;;;;;;2.25;0.70;;;;;;;16.23;94.78;100809.69;7364337;19;20033;-66
2023/10/03 03:26:39;;;;;;;1.52;0.90;;;;;;;16.15;94.16;100812.47;7359762;19;20122;-65
2023/10/03 03:29:20;;;;;;;1.70;1.02;;;;;;;16.04;94.37;100805.81;7359096;19;20581;-66
2023/10/03 03:31:52;;;;;;;1.73;1.08;;;;;;;16.06;94.81;100813.56;7364257;19;21211;-65
2023/10/03 03:34:20;;;;;;;1.67;0.88;;;;;;;16.08;95.90;100808.91;7360948;19;21085;-65
2023/10/03 03:36:54;;;;;;;1.73;0.90;;;;;;;16.06;95.40;100817.06;7362289;19;20011;-66
2023/10/03 03:39:25;;;;;;;2.28;0.75;;;;;;;16.08;95.42;100822.19;7359527;19;20028;-65
2023/10/03 03:41:52;;;;;;;2.75;1.08;;;;;;;16.08;95.44;100823.00;7362460;19;20274;-66
2023/10/03 03:44:20;;;;;;;3.38;1.65;;;;;;;16.08;95.43;100830.16;7357904;19;20034;-65
2023/10/03 03:46:48;;;;;;;2.60;1.13;;;;;;;16.06;94.69;100851.56;7359177;19;20016;-66
2023/10/03 03:49:18;;;;;;;3.15;1.45;;;;;;;16.08;95.25;100852.22;7357874;19;20052;-66
2023/10/03 03:51:46;;;;;;;2.22;1.05;;;;;;;16.10;95.42;100852.03;7364577;19;20368;-66
2023/10/03 03:54:13;;;;;;;4.93;1.23;;;;;;;16.03;94.03;100862.56;7364267;19;20026;-65
2023/10/03 03:56:40;;;;;;;3.42;1.52;;;;;;;16.04;94.92;100852.78;7361080;19;20101;-66
2023/10/03 03:59:09;;;;;;;2.80;1.77;;;;;;;16.04;94.48;100845.63;7354986;19;20664;-65
2023/10/03 04:01:36;;;;;;;3.92;1.58;;;;;;;16.01;93.88;100863.75;7360931;19;20014;-66
2023/10/03 04:04:07;;;;;;;2.90;1.58;;;;;;;16.00;94.85;100872.75;7357481;19;20022;-65
2023/10/03 04:06:35;;;;;;;3.85;1.70;;;;;;;15.99;95.21;100881.72;7362577;19;20034;-65
2023/10/03 04:09:05;;;;;;;2.70;1.98;;;;;;;15.97;95.90;100873.94;7362015;19;20525;-65
2023/10/03 04:11:35;;;;;;;2.95;1.77;;;;;;;15.97;96.40;100881.88;7360242;19;20042;-65
2023/10/03 04:14:07;;;;;;;2.85;1.98;;;;;;;15.99;97.45;100885.19;7355341;19;20021;-66
2023/10/03 04:16:43;;;;;;;5.40;2.85;;;;;;;15.98;97.81;100888.84;7362093;19;20033;-66
2023/10/03 04:19:11;;;;;;;4.35;2.58;;;;;;;16.01;99.07;100900.91;7361316;19;20592;-66
2023/10/03 04:21:40;;;;;;;6.35;3.70;;;;;;;15.98;98.91;100901.28;7360230;19;20423;-66
2023/10/03 04:24:11;;;;;;;6.68;3.95;;;;;;;15.99;100.00;100906.44;7362000;19;20427;-66
2023/10/03 04:26:42;;;;;;;6.75;3.58;;;;;;;15.97;99.64;100913.75;7359541;19;20021;-67
2023/10/03 04:29:14;;;;;;;6.65;3.80;;;;;;;15.95;99.20;100907.00;7352593;19;20010;-65
2023/10/03 04:31:43;;;;;;;7.50;4.15;;;;;;;15.97;99.11;100913.75;7360399;19;20916;-65
2023/10/03 04:34:11;;;;;;;8.90;4.53;;;;;;;15.95;98.82;100930.88;7359402;19;20018;-65
2023/10/03 04:36:41;;;;;;;8.45;4.22;;;;;;;15.89;99.07;100934.25;7361419;19;20022;-65
2023/10/03 04:39:09;;;;;;;8.10;4.15;;;;;;;15.92;99.44;100936.53;7359812;19;20138;-66
2023/10/03 04:41:43;;;;;;;7.07;3.90;;;;;;;15.90;99.98;100930.59;7360571;19;20379;-66
2023/10/03 04:44:15;;;;;;;5.82;2.97;;;;;;;15.89;99.68;100937.75;7356276;19;20451;-65
2023/10/03 04:46:48;;;;;;;6.80;3.65;;;;;;;15.88;98.29;100940.56;7359723;19;20363;-66
2023/10/03 04:49:15;;;;;;;6.70;3.78;;;;;;;15.83;98.61;100939.31;7358542;19;20586;-66
2023/10/03 04:51:47;;;;;;;6.97;3.45;;;;;;;15.83;98.41;100949.09;7360491;19;20014;-66
2023/10/03 04:54:16;;;;;;;9.23;5.05;;;;;;;15.82;98.74;100950.09;7360322;19;20034;-66
2023/10/03 04:56:44;;;;;;;6.57;3.00;;;;;;;15.83;99.27;100962.34;7358859;19;20034;-67
2023/10/03 04:59:29;;;;;;;5.97;2.85;;;;;;;15.83;99.61;100947.25;7357494;19;20015;-65
2023/10/03 05:02:11;;;;;;;5.45;2.30;;;;;;;15.85;99.02;100960.31;7357593;19;20022;-66
2023/10/03 05:04:42;;;;;;;4.82;2.10;;;;;;;15.84;97.80;100958.69;7356384;19;20026;-66
2023/10/03 05:07:10;;;;;;;4.95;2.40;;;;;;;15.83;97.59;100955.22;7359611;19;20082;-67
2023/10/03 05:09:37;;;;;;;8.52;2.33;;;;;;;15.80;96.61;100962.72;7362280;19;20027;-68
2023/10/03 05:12:04;;;;;;;5.95;2.00;;;;;;;15.77;96.49;100969.22;7361010;19;20022;-66
2023/10/03 05:14:32;;;;;;;5.20;2.50;;;;;;;15.77;96.79;100965.75;7358218;19;20018;-66
2023/10/03 05:17:01;;;;;;;4.97;1.90;;;;;;;15.77;97.54;100969.22;7360503;19;20475;-66
2023/10/03 05:19:28;;;;;;;5.60;2.08;;;;;;;15.77;96.50;100989.63;7358385;19;20065;-66
2023/10/03 05:21:56;;;;;;;7.07;2.47;;;;;;;15.79;96.47;100996.41;7359303;19;20018;-67
2023/10/03 05:24:24;;;;;;;6.20;1.67;;;;;;;15.75;95.63;101002.22;7358260;19;20045;-67
2023/10/03 05:26:51;;;;;;;5.50;1.83;;;;;;;15.74;95.42;100997.94;7356008;19;20015;-67
2023/10/03 05:29:21;;;;;;;4.63;2.30;;;;;;;15.74;95.27;101006.75;7352916;19;20078;-66
2023/10/03 05:31:48;;;;;;;4.35;1.80;;;;;;;15.74;95.12;101004.09;7360358;19;20018;-67
2023/10/03 05:34:15;;;;;;;5.53;1.98;;;;;;;15.71;95.68;101004.44;7355313;19;20951;-66
2023/10/03 05:36:44;;;;;;;5.57;1.92;;;;;;;15.73;95.55;101010.41;7359496;19;20018;-67
2023/10/03 05:39:11;;;;;;;4.95;2.30;;;;;;;15.72;95.06;101016.69;7358583;19;20010;-66
2023/10/03 05:41:41;;;;;;;5.47;2.38;;;;;;;15.72;95.27;101022.00;7358738;19;20016;-66
2023/10/03 05:44:13;;;;;;;4.75;1.90;;;;;;;15.76;95.45;101033.06;7354674;19;20514;-65
2023/10/03 05:46:42;;;;;;;3.75;1.40;;;;;;;15.77;95.27;101043.50;7359088;19;20026;-66
2023/10/03 05:49:09;;;;;;;4.57;1.95;;;;;;;15.76;95.11;101047.16;7355315;19;20011;-67
2023/10/03 05:51:36;;;;;;;5.65;2.78;;;;;;;15.81;96.96;101046.63;7358471;19;20086;-67
2023/10/03 05:54:06;;;;;;;5.20;1.77;;;;;;;15.83;95.97;101049.94;7357494;19;20727;-65
2023/10/03 05:56:33;;;;;;;5.43;1.80;;;;;;;15.84;94.78;101054.25;7357161;19;20737;-65
2023/10/03 05:59:01;;;;;;;5.53;1.77;;;;;;;15.83;94.71;101069.34;7354911;19;20014;-66
2023/10/03 06:01:29;;;;;;;5.88;1.83;;;;;;;15.85;95.56;101065.69;7359305;19;20038;-68
2023/10/03 06:03:56;;;;;;;3.92;1.67;;;;;;;15.82;94.57;101072.97;7354473;19;20025;-67
2023/10/03 06:06:28;;;;;;;3.83;1.60;;;;;;;15.79;94.52;101078.66;7356024;19;20034;-66
2023/10/03 06:08:56;;;;;;;7.60;1.80;;;;;;;15.81;94.69;101092.56;7354940;19;20019;-67
2023/10/03 06:11:24;;;;;;;5.68;1.90;;;;;;;15.81;95.57;101095.22;7357393;19;20034;-66
2023/10/03 06:13:51;;;;;;;7.90;2.80;;;;;;;15.80;95.82;101096.22;7353252;19;21041;-66
2023/10/03 06:16:18;;;;;;;5.65;2.30;;;;;;;15.78;95.52;101100.88;7357403;19;20027;-65
2023/10/03 06:18:45;;;;;;;7.07;2.20;;;;;;;15.76;95.50;101108.19;7356688;19;20090;-65
2023/10/03 06:21:12;;;;;;;7.28;2.53;;;;;;;15.75;95.31;101103.88;7355285;19;20053;-66
2023/10/03 06:23:39;;;;;;;8.68;2.75;;;;;;;15.77;95.63;101109.84;7356517;19;20081;-67
2023/10/03 06:26:06;;;;;;;6.53;2.47;;;;;;;15.78;95.16;101108.03;7356701;19;20224;-66
2023/10/03 06:28:33;;;;;;;5.32;2.40;;;;;;;15.79;94.75;101120.28;7355098;19;20019;-66
2023/10/03 06:31:00;;;;;;;5.30;2.72;;;;;;;15.78;94.51;101113.34;7354729;19;20155;-67
2023/10/03 06:33:27;;;;;;;10.88;3.85;;;;;;;15.99;100.00;101113.47;7354923;19;20021;-67
2023/10/03 06:35:55;;;;;;;6.35;3.05;;;;;;;16.04;100.00;101118.22;7355898;19;20014;-65
2023/10/03 06:38:23;;;;;;;6.50;2.92;;;;;;;16.02;98.27;101128.19;7354132;19;20422;-65
2023/10/03 06:40:50;;;;;;;5.00;2.78;;;;;;;15.96;96.74;101140.34;7356981;19;20023;-66
2023/10/03 06:43:17;;;;;;;6.88;2.80;;;;;;;15.96;96.03;101134.22;7352054;19;20094;-66
2023/10/03 06:45:45;;;;;;;4.82;2.38;;;;;;;15.93;95.54;101139.91;7351898;19;21172;-67
2023/10/03 06:48:12;;;;;;;8.30;2.80;;;;;;;15.94;95.90;101147.69;7353103;19;20479;-66
2023/10/03 06:50:42;;;;;;;5.82;3.42;;;;;;;15.91;95.67;101163.13;7356883;19;20341;-67
2023/10/03 06:53:09;;;;;;;5.15;2.65;;;;;;;15.90;96.12;101161.50;7357752;19;20471;-66
2023/10/03 06:55:36;;;;;;;6.15;2.47;;;;;;;15.87;96.00;101161.84;7355714;19;20098;-67
2023/10/03 06:58:03;;;;;;;9.20;2.35;;;;;;;15.84;95.91;101168.34;7353309;19;20010;-66
2023/10/03 07:00:32;;;;;;;6.88;2.90;;;;;;;15.84;96.70;101160.38;7353673;19;20026;-66
2023/10/03 07:02:59;;;;;;;7.68;2.78;;;;;;;15.87;96.49;101172.47;7356114;19;20018;-67
2023/10/03 07:05:26;;;;;;;4.70;1.65;;;;;;;15.82;95.44;101165.88;7351290;19;20022;-67
2023/10/03 07:07:53;;;;;;;5.47;2.03;;;;;;;15.80;95.29;101157.25;7352637;19;20011;-66
2023/10/03 07:10:25;;;;;;;6.38;1.85;;;;;;;15.82;95.35;101167.69;7355688;19;20441;-66
2023/10/03 07:12:52;;;;;;;8.75;3.15;;;;;;;15.86;95.43;101168.97;7354507;19;20744;-66
2023/10/03 07:15:19;;;;;;;8.18;2.50;;;;;;;15.85;94.88;101167.31;7354026;19;20010;-65
2023/10/03 07:17:46;;;;;;;8.07;1.92;;;;;;;15.85;94.62;101177.13;7355008;19;20087;-67
2023/10/03 07:20:14;;;;;;;7.00;2.20;;;;;;;15.77;93.85;101176.19;7355815;19;20086;-66
2023/10/03 07:22:42;;;;;;;7.30;3.17;;;;;;;15.75;93.99;101180.84;7354110;19;20014;-67
2023/10/03 07:25:11;;;;;;;6.82;2.35;;;;;;;15.76;94.67;101182.50;7355153;19;20040;-66
2023/10/03 07:27:41;;;;;;;6.45;2.55;;;;;;;15.81;95.49;101192.56;7350852;19;20043;-66
2023/10/03 07:30:09;;;;;;;8.65;2.60;;;;;;;15.85;95.70;101198.38;7352428;19;20015;-66
2023/10/03 07:32:36;;;;;;;8.80;2.80;;;;;;;15.85;94.42;101203.69;7353992;19;20030;-66
2023/10/03 07:35:06;;;;;;;8.07;2.80;;;;;;;15.85;94.33;101204.47;7356249;19;20026;-67
2023/10/03 07:37:34;;;;;;;9.23;3.05;;;;;;;15.81;93.50;101213.81;7353643;19;20023;-66
2023/10/03 07:40:01;;;;;;;8.13;3.08;;;;;;;15.79;94.47;101210.50;7352343;19;20016;-66
2023/10/03 07:42:28;;;;;;;5.65;2.63;;;;;;;15.79;94.05;101214.00;7351524;19;20011;-66
2023/10/03 07:44:56;;;;;;;7.72;2.63;;;;;;;15.84;94.21;101226.72;7353501;19;20106;-65
2023/10/03 07:47:30;;;;;;;7.20;3.13;;;;;;;15.88;94.26;101230.69;7352201;19;20098;-66
2023/10/03 07:50:00;;;;;;;7.10;2.53;;;;;;;15.89;93.71;101240.28;7353866;19;20018;-66
2023/10/03 07:52:27;;;;;;;7.93;2.50;;;;;;;15.92;93.49;101247.06;7354602;19;20486;-65
2023/10/03 07:54:56;;;;;;;6.30;2.30;;;;;;;15.90;92.93;101244.56;7354954;19;20014;-66
2023/10/03 07:57:28;;;;;;;7.13;2.47;;;;;;;15.91;92.33;101256.03;7349534;19;20010;-67
2023/10/03 07:59:56;;;;;;;;;;;;;;;15.95;92.03;101258.16;7353431;19;20015;-67
2023/10/03 08:02:32;;;;;;;10.27;3.35;;;;;;;15.96;92.08;101274.91;7356415;19;19966;-68
2023/10/03 08:05:00;;;;;;;8.48;2.38;;;;;;;16.03;91.83;101271.38;7354591;19;20347;-67
2023/10/03 08:07:32;;;;;;;5.10;2.30;;;;;;;16.11;92.86;101268.66;7355777;19;20014;-66
2023/10/03 08:10:02;;;;;;;7.13;2.55;;;;;;;16.16;92.67;101274.25;7362148;19;20358;-66
2023/10/03 08:12:32;;;;;;;7.03;2.15;;;;;;;16.23;92.25;101271.72;7359127;19;20560;-67
2023/10/03 08:14:59;;;;;;;9.32;2.00;;;;;;;16.24;91.77;101286.66;7360842;19;20071;-67
2023/10/03 08:17:31;;;;;;;4.88;1.67;;;;;;;16.30;91.71;101293.91;7360582;19;20015;-67
2023/10/03 08:20:04;;;;;;;15.02;1.67;;;;;;;16.33;91.50;101309.47;7360971;19;20526;-66
2023/10/03 08:22:31;;;;;;;9.48;1.45;;;;;;;16.38;93.09;101316.91;7360946;19;20006;-67
2023/10/03 08:25:00;;;;;;;5.43;1.20;;;;;;;16.38;91.51;101307.09;7360325;19;20006;-66
2023/10/03 08:27:30;;;;;;;9.48;1.20;;;;;;;16.42;90.72;101318.19;7355381;19;20010;-66
2023/10/03 08:29:58;;;;;;;7.85;1.20;;;;;;;16.41;89.67;101319.19;7357552;19;20653;-67
2023/10/03 08:32:25;;;;;;;6.13;1.58;;;;;;;16.44;89.69;101329.47;7357859;19;20018;-66
2023/10/03 08:34:52;;;;;;;5.80;1.30;;;;;;;16.49;90.75;101327.13;7357636;19;20237;-66
2023/10/03 08:37:36;;;;;;;2.70;0.90;;;;;;;16.53;89.11;101331.06;7360336;19;20041;-66
2023/10/03 08:40:19;;;;;;;10.02;1.17;;;;;;;16.53;88.20;101342.50;7361436;19;20018;-65
2023/10/03 08:42:55;;;;;;;4.40;0.88;;;;;;;16.51;87.36;101364.94;7355575;19;20966;-66
2023/10/03 08:45:25;;;;;;;12.23;1.65;;;;;;;16.46;86.64;101367.31;7353169;19;20310;-66
2023/10/03 08:47:55;;;;;;;9.73;1.13;;;;;;;16.45;88.12;101369.16;7356960;19;20050;-66
2023/10/03 08:50:35;;;;;;;5.50;0.95;;;;;;;16.44;87.69;101364.84;7361214;19;20014;-66
2023/10/03 08:55:49;;;;;;;4.78;0.73;;;;;;;16.53;87.74;101385.03;7359146;19;20080;-65
2023/10/03 08:58:25;;;;;;;4.25;0.80;;;;;;;16.55;86.99;101367.09;7358017;19;20090;-66
2023/10/03 09:01:03;;;;;;;2.30;0.70;;;;;;;16.60;87.11;101379.88;7358290;19;20044;-67
2023/10/03 09:03:47;;;;;;;4.82;0.82;;;;;;;16.69;87.78;101384.09;7359258;19;20018;-65
2023/10/03 09:06:23;;;;;;;5.50;0.82;;;;;;;16.66;86.23;101385.28;7356680;19;20628;-67
2023/10/03 09:09:07;;;;;;;5.45;1.00;;;;;;;16.67;85.82;101384.28;7352825;19;20018;-66
2023/10/03 09:11:37;;;;;;;7.20;1.48;;;;;;;16.73;85.21;101384.56;7360393;19;20899;-67
2023/10/03 09:14:19;;;;;;;4.53;0.70;;;;;;;16.72;84.76;101390.88;7355676;19;20035;-67
2023/10/03 09:16:50;;;;;;;5.97;0.95;;;;;;;16.76;85.12;101408.16;7351662;19;20042;-66
2023/10/03 09:19:24;;;;;;;5.25;0.70;;;;;;;16.77;84.75;101413.25;7362072;19;20015;-66
2023/10/03 09:21:55;;;;;;;3.65;0.80;;;;;;;16.76;83.65;101400.97;7358095;19;20019;-66
2023/10/03 09:24:24;;;;;;;4.43;0.80;;;;;;;16.78;83.31;101398.97;7358286;19;20028;-66
2023/10/03 09:27:02;;;;;;;3.75;0.60;;;;;;;16.83;83.50;101401.91;7358538;19;20595;-67
2023/10/03 09:29:32;;;;;;;3.95;0.88;;;;;;;16.87;82.54;101397.06;7355628;19;20060;-66
2023/10/03 09:32:12;;;;;;;9.40;3.25;;;;;;;16.91;81.93;101411.66;7359430;19;20050;-66
2023/10/03 09:34:45;;;;;;;7.22;0.90;;;;;;;16.97;83.26;101409.09;7351860;19;20100;-66
2023/10/03 09:37:12;;;;;;;4.90;0.80;;;;;;;17.06;84.10;101413.34;7359296;19;20677;-66
2023/10/03 09:39:49;;;;;;;9.65;1.35;;;;;;;17.15;81.88;101427.41;7356593;19;20376;-66
2023/10/03 09:42:18;;;;;;;5.05;0.57;;;;;;;17.18;81.82;101431.50;7352463;19;20023;-66
2023/10/03 09:44:51;;;;;;;3.10;0.50;;;;;;;17.18;80.47;101435.00;7350932;19;20021;-66
2023/10/03 09:47:39;;;;;;;4.80;0.60;;;;;;;17.17;79.76;101446.63;7357529;19;20023;-66
2023/10/03 09:50:08;;;;;;;6.22;0.80;;;;;;;17.21;79.63;101444.47;7358757;19;20042;-66
2023/10/03 09:52:37;;;;;;;4.90;0.57;;;;;;;17.22;78.36;101449.59;7358206;19;20014;-66
2023/10/03 09:55:20;;;;;;;4.43;0.70;;;;;;;17.29;79.22;101439.88;7357856;19;20018;-66
2023/10/03 09:57:52;;;;;;;4.57;0.70;;;;;;;17.38;79.68;101459.25;7356333;19;20022;-67
2023/10/03 10:03:13;;;;;;;4.20;0.60;;;;;;;17.46;77.67;101461.84;7356688;19;20309;-66
2023/10/03 10:06:17;;;;;;;4.00;0.70;;;;;;;17.44;76.19;101470.00;7342555;19;20723;-65
2023/10/03 10:08:58;;;;;;;4.28;1.17;;;;;;;17.49;77.87;101464.13;7347509;19;20018;-65
2023/10/03 10:11:32;;;;;;;7.20;1.30;;;;;;;17.56;77.79;101462.41;7351051;19;20442;-65
2023/10/03 10:14:19;;;;;;;7.20;0.75;;;;;;;17.61;77.89;101473.34;7355912;19;20658;-66
2023/10/03 10:17:21;;;;;;;2.67;0.70;;;;;;;17.70;77.22;101482.91;7356982;19;20982;-65
2023/10/03 10:20:37;;;;;;;3.85;0.70;;;;;;;17.72;74.82;101482.72;7355926;19;20018;-66
2023/10/03 10:25:51;;;;;;;6.90;0.43;;;;;;;17.76;76.46;101474.19;7358780;19;20007;-66
2023/10/03 10:28:24;;;;;;;5.10;0.50;;;;;;;17.84;75.26;101487.41;7352357;19;20018;-66
2023/10/03 10:31:11;;;;;;;4.80;0.60;;;;;;;17.92;73.89;101478.50;7355930;19;21645;-66
2023/10/03 10:33:38;;;;;;;2.50;0.50;;;;;;;17.98;75.40;101477.75;7355671;19;20042;-66
2023/10/03 10:36:10;;;;;;;5.90;0.60;;;;;;;18.03;75.49;101485.19;7356814;19;20118;-66
2023/10/03 10:38:39;;;;;;;2.97;0.70;;;;;;;18.08;75.50;101488.94;7351933;19;20558;-65
2023/10/03 10:41:17;;;;;;;2.80;0.68;;;;;;;18.12;74.52;101492.06;7356740;19;20429;-66
2023/10/03 10:44:07;;;;;;;4.15;0.60;;;;;;;18.17;74.44;101487.84;7352332;19;20018;-66
2023/10/03 10:46:47;;;;;;;9.18;1.20;;;;;;;18.24;75.39;101491.41;7356453;19;20029;-66
2023/10/03 10:49:36;;;;;;;10.48;0.90;;;;;;;18.31;75.04;101508.31;7351239;19;20053;-65
2023/10/03 10:52:09;;;;;;;5.85;0.60;;;;;;;18.36;74.67;101513.91;7355670;19;20102;-66
2023/10/03 10:54:41;;;;;;;9.02;0.70;;;;;;;18.41;73.04;101517.84;7356128;19;20142;-66
2023/10/03 10:57:18;;;;;;;7.20;0.60;;;;;;;18.41;71.46;101521.34;7354213;19;20015;-66
2023/10/03 10:59:45;;;;;;;4.38;0.30;;;;;;;18.47;70.10;101514.44;7354499;19;20022;-66
2023/10/03 11:02:20;;;;;;;5.88;0.50;;;;;;;18.44;70.70;101515.63;7355215;19;20025;-66
2023/10/03 11:04:56;;;;;;;8.38;0.57;;;;;;;18.45;70.97;101516.44;7356344;19;20591;-67
2023/10/03 11:07:31;;;;;;;4.53;0.50;;;;;;;18.51;71.57;101523.69;7352417;19;20054;-68
2023/10/03 11:10:12;;;;;;;4.47;0.75;;;;;;;18.51;69.53;101529.03;7349361;19;20632;-66
2023/10/03 11:12:59;;;;;;;5.43;0.50;;;;;;;18.51;69.04;101537.03;7354741;19;20018;-65
2023/10/03 11:15:26;;;;;;;7.07;1.00;;;;;;;18.55;72.15;101523.16;7350497;19;20037;-68
2023/10/03 11:17:55;;;;;;;5.97;0.70;;;;;;;18.60;73.92;101534.09;7353428;19;20049;-67
2023/10/03 11:20:23;;;;;;;4.35;0.60;;;;;;;18.67;74.86;101531.50;7356095;19;20494;-67
2023/10/03 11:22:50;;;;;;;3.80;0.50;;;;;;;18.65;71.69;101525.53;7351628;19;20022;-65
2023/10/03 11:25:18;;;;;;;3.92;0.50;;;;;;;18.68;69.63;101522.50;7356798;19;20161;-65
2023/10/03 11:27:46;;;;;;;4.15;0.60;;;;;;;18.69;69.12;101524.16;7351201;19;20305;-66
2023/10/03 11:30:15;;;;;;;4.28;0.55;;;;;;;18.71;69.28;101530.09;7355204;19;20071;-66
2023/10/03 11:32:43;;;;;;;5.32;0.40;;;;;;;18.75;70.05;101518.88;7353990;19;20033;-67
2023/10/03 11:35:18;;;;;;;5.82;0.60;;;;;;;18.83;70.20;101522.44;7354549;19;20038;-66
2023/10/03 11:37:46;;;;;;;7.90;0.55;;;;;;;18.90;69.74;101531.31;7351993;19;20121;-66
2023/10/03 11:40:16;;;;;;;3.78;0.50;;;;;;;18.89;66.80;101535.88;7361904;19;20014;-67
2023/10/03 11:42:58;;;;;;;4.30;0.50;;;;;;;18.90;68.15;101532.16;7359408;19;20528;-66
2023/10/03 11:45:29;;;;;;;4.20;0.47;;;;;;;18.91;67.36;101530.31;7359908;19;20026;-66
2023/10/03 11:48:10;;;;;;;3.40;0.43;;;;;;;18.92;67.49;101535.47;7361874;19;20521;-66
2023/10/03 11:50:39;;;;;;;12.25;1.23;;;;;;;19.00;67.43;101538.00;7363350;19;20018;-66
2023/10/03 11:53:10;;;;;;;2.95;0.60;;;;;;;19.05;66.18;101527.59;7361061;19;22071;-66